sensor_id;sensor_type;location;lat;lon;timestamp;P1;durP1;ratioP1;P2;durP2;ratioP2
38425;SDS011;24210;51.460;6.148;2023-04-03T00:00:04;2.57;;;2.37;;
38425;SDS011;24210;51.460;6.148;2023-04-03T00:04:55;4.70;;;2.53;;
38425;SDS011;24210;51.460;6.148;2023-04-03T00:07:20;2.47;;;2.20;;
38425;SDS011;24210;51.460;6.148;2023-04-03T00:09:46;2.40;;;1.93;;
38425;SDS011;24210;51.460;6.148;2023-04-03T00:12:11;2.97;;;2.67;;
38425;SDS011;24210;51.460;6.148;2023-04-03T00:14:36;2.80;;;2.30;;
38425;SDS011;24210;51.460;6.148;2023-04-03T00:17:01;3.47;;;3.10;;
38425;SDS011;24210;51.460;6.148;2023-04-03T00:19:27;2.97;;;2.50;;
38425;SDS011;24210;51.460;6.148;2023-04-03T00:21:52;6.23;;;3.37;;
38425;SDS011;24210;51.460;6.148;2023-04-03T00:24:18;3.75;;;2.95;;
38425;SDS011;24210;51.460;6.148;2023-04-03T00:26:43;5.23;;;3.17;;
38425;SDS011;24210;51.460;6.148;2023-04-03T00:29:08;5.43;;;3.23;;
38425;SDS011;24210;51.460;6.148;2023-04-03T00:31:34;3.70;;;2.57;;
38425;SDS011;24210;51.460;6.148;2023-04-03T00:33:59;7.13;;;3.87;;
38425;SDS011;24210;51.460;6.148;2023-04-03T00:36:24;4.87;;;2.80;;
38425;SDS011;24210;51.460;6.148;2023-04-03T00:38:50;3.47;;;2.43;;
38425;SDS011;24210;51.460;6.148;2023-04-03T00:41:16;4.57;;;3.05;;
38425;SDS011;24210;51.460;6.148;2023-04-03T00:43:41;2.63;;;2.43;;
38425;SDS011;24210;51.460;6.148;2023-04-03T00:46:06;3.87;;;3.30;;
38425;SDS011;24210;51.460;6.148;2023-04-03T00:48:42;3.73;;;2.43;;
38425;SDS011;24210;51.460;6.148;2023-04-03T00:51:16;5.38;;;3.75;;
38425;SDS011;24210;51.460;6.148;2023-04-03T00:54:01;7.68;;;2.83;;
38425;SDS011;24210;51.460;6.148;2023-04-03T00:56:27;4.85;;;2.20;;
38425;SDS011;24210;51.460;6.148;2023-04-03T00:58:56;3.58;;;2.63;;
38425;SDS011;24210;51.460;6.148;2023-04-03T01:01:23;5.30;;;2.45;;
38425;SDS011;24210;51.460;6.148;2023-04-03T01:03:49;4.50;;;2.70;;
38425;SDS011;24210;51.460;6.148;2023-04-03T01:06:16;5.63;;;2.63;;
38425;SDS011;24210;51.460;6.148;2023-04-03T01:08:41;2.88;;;2.55;;
38425;SDS011;24210;51.460;6.148;2023-04-03T01:11:06;5.67;;;3.10;;
38425;SDS011;24210;51.460;6.148;2023-04-03T01:13:32;3.67;;;2.70;;
38425;SDS011;24210;51.460;6.148;2023-04-03T01:16:00;3.33;;;2.80;;
38425;SDS011;24210;51.460;6.148;2023-04-03T01:18:26;3.50;;;2.53;;
38425;SDS011;24210;51.460;6.148;2023-04-03T01:23:34;5.23;;;3.03;;
38425;SDS011;24210;51.460;6.148;2023-04-03T01:26:01;4.90;;;3.42;;
38425;SDS011;24210;51.460;6.148;2023-04-03T01:28:29;6.53;;;3.30;;
38425;SDS011;24210;51.460;6.148;2023-04-03T01:33:40;3.90;;;3.05;;
38425;SDS011;24210;51.460;6.148;2023-04-03T01:36:05;4.63;;;3.07;;
38425;SDS011;24210;51.460;6.148;2023-04-03T01:38:31;4.60;;;2.80;;
38425;SDS011;24210;51.460;6.148;2023-04-03T01:40:56;5.67;;;2.90;;
38425;SDS011;24210;51.460;6.148;2023-04-03T01:43:21;5.23;;;3.57;;
38425;SDS011;24210;51.460;6.148;2023-04-03T01:45:46;4.33;;;3.37;;
38425;SDS011;24210;51.460;6.148;2023-04-03T01:48:14;5.13;;;3.13;;
38425;SDS011;24210;51.460;6.148;2023-04-03T01:50:40;3.20;;;2.55;;
38425;SDS011;24210;51.460;6.148;2023-04-03T01:53:05;3.83;;;3.17;;
38425;SDS011;24210;51.460;6.148;2023-04-03T01:55:31;6.37;;;2.97;;
38425;SDS011;24210;51.460;6.148;2023-04-03T01:57:56;4.73;;;3.03;;
38425;SDS011;24210;51.460;6.148;2023-04-03T02:00:21;4.10;;;3.60;;
38425;SDS011;24210;51.460;6.148;2023-04-03T02:02:46;4.20;;;3.67;;
38425;SDS011;24210;51.460;6.148;2023-04-03T02:05:12;3.53;;;2.90;;
38425;SDS011;24210;51.460;6.148;2023-04-03T02:07:37;7.30;;;3.33;;
38425;SDS011;24210;51.460;6.148;2023-04-03T02:10:02;4.20;;;3.20;;
38425;SDS011;24210;51.460;6.148;2023-04-03T02:12:28;4.43;;;2.70;;
38425;SDS011;24210;51.460;6.148;2023-04-03T02:14:53;5.93;;;3.33;;
38425;SDS011;24210;51.460;6.148;2023-04-03T02:17:18;3.60;;;3.10;;
38425;SDS011;24210;51.460;6.148;2023-04-03T02:19:43;5.03;;;2.90;;
38425;SDS011;24210;51.460;6.148;2023-04-03T02:22:09;4.23;;;3.13;;
38425;SDS011;24210;51.460;6.148;2023-04-03T02:24:34;10.07;;;3.30;;
38425;SDS011;24210;51.460;6.148;2023-04-03T02:26:59;3.67;;;2.13;;
38425;SDS011;24210;51.460;6.148;2023-04-03T02:29:25;3.47;;;2.80;;
38425;SDS011;24210;51.460;6.148;2023-04-03T02:31:50;4.17;;;2.60;;
38425;SDS011;24210;51.460;6.148;2023-04-03T02:34:15;4.73;;;2.63;;
38425;SDS011;24210;51.460;6.148;2023-04-03T02:36:41;4.83;;;2.57;;
38425;SDS011;24210;51.460;6.148;2023-04-03T02:39:06;2.57;;;2.27;;
38425;SDS011;24210;51.460;6.148;2023-04-03T02:41:31;5.57;;;2.93;;
38425;SDS011;24210;51.460;6.148;2023-04-03T02:44:04;4.07;;;1.80;;
38425;SDS011;24210;51.460;6.148;2023-04-03T02:46:30;8.70;;;2.83;;
38425;SDS011;24210;51.460;6.148;2023-04-03T02:48:55;3.90;;;2.30;;
38425;SDS011;24210;51.460;6.148;2023-04-03T02:51:20;5.50;;;2.87;;
38425;SDS011;24210;51.460;6.148;2023-04-03T02:53:45;3.67;;;1.87;;
38425;SDS011;24210;51.460;6.148;2023-04-03T02:56:11;4.77;;;1.83;;
38425;SDS011;24210;51.460;6.148;2023-04-03T02:58:36;2.73;;;2.33;;
38425;SDS011;24210;51.460;6.148;2023-04-03T03:01:01;2.83;;;2.00;;
38425;SDS011;24210;51.460;6.148;2023-04-03T03:03:26;4.60;;;2.53;;
38425;SDS011;24210;51.460;6.148;2023-04-03T03:08:46;4.20;;;1.88;;
38425;SDS011;24210;51.460;6.148;2023-04-03T03:11:12;4.93;;;1.77;;
38425;SDS011;24210;51.460;6.148;2023-04-03T03:13:37;5.03;;;1.93;;
38425;SDS011;24210;51.460;6.148;2023-04-03T03:16:02;3.40;;;1.73;;
38425;SDS011;24210;51.460;6.148;2023-04-03T03:18:28;3.07;;;1.70;;
38425;SDS011;24210;51.460;6.148;2023-04-03T03:20:55;5.05;;;2.03;;
38425;SDS011;24210;51.460;6.148;2023-04-03T03:23:21;5.93;;;2.58;;
38425;SDS011;24210;51.460;6.148;2023-04-03T03:25:46;6.00;;;2.55;;
38425;SDS011;24210;51.460;6.148;2023-04-03T03:28:11;4.10;;;1.60;;
38425;SDS011;24210;51.460;6.148;2023-04-03T03:30:37;4.60;;;1.73;;
38425;SDS011;24210;51.460;6.148;2023-04-03T03:33:02;3.27;;;1.70;;
38425;SDS011;24210;51.460;6.148;2023-04-03T03:35:27;5.67;;;1.93;;
38425;SDS011;24210;51.460;6.148;2023-04-03T03:37:52;4.87;;;1.67;;
38425;SDS011;24210;51.460;6.148;2023-04-03T03:40:18;8.03;;;3.97;;
38425;SDS011;24210;51.460;6.148;2023-04-03T03:42:43;4.50;;;1.90;;
38425;SDS011;24210;51.460;6.148;2023-04-03T03:45:08;6.90;;;2.27;;
38425;SDS011;24210;51.460;6.148;2023-04-03T03:47:34;4.20;;;1.70;;
38425;SDS011;24210;51.460;6.148;2023-04-03T03:49:59;6.37;;;2.27;;
38425;SDS011;24210;51.460;6.148;2023-04-03T03:52:25;5.10;;;2.03;;
38425;SDS011;24210;51.460;6.148;2023-04-03T03:54:51;4.15;;;2.45;;
38425;SDS011;24210;51.460;6.148;2023-04-03T03:57:16;8.27;;;2.00;;
38425;SDS011;24210;51.460;6.148;2023-04-03T03:59:41;5.07;;;2.00;;
38425;SDS011;24210;51.460;6.148;2023-04-03T04:02:07;3.83;;;1.90;;
38425;SDS011;24210;51.460;6.148;2023-04-03T04:04:33;2.90;;;1.70;;
38425;SDS011;24210;51.460;6.148;2023-04-03T04:06:58;5.10;;;2.27;;
38425;SDS011;24210;51.460;6.148;2023-04-03T04:09:25;3.80;;;1.33;;
38425;SDS011;24210;51.460;6.148;2023-04-03T04:11:50;3.87;;;1.67;;
38425;SDS011;24210;51.460;6.148;2023-04-03T04:14:16;2.93;;;1.90;;
38425;SDS011;24210;51.460;6.148;2023-04-03T04:16:41;2.07;;;1.03;;
38425;SDS011;24210;51.460;6.148;2023-04-03T04:19:06;8.10;;;3.17;;
38425;SDS011;24210;51.460;6.148;2023-04-03T04:21:31;5.73;;;1.67;;
38425;SDS011;24210;51.460;6.148;2023-04-03T04:23:56;6.40;;;2.23;;
38425;SDS011;24210;51.460;6.148;2023-04-03T04:26:22;3.87;;;1.40;;
38425;SDS011;24210;51.460;6.148;2023-04-03T04:28:47;1.70;;;1.20;;
38425;SDS011;24210;51.460;6.148;2023-04-03T04:31:12;2.10;;;1.03;;
38425;SDS011;24210;51.460;6.148;2023-04-03T04:33:37;4.27;;;0.97;;
38425;SDS011;24210;51.460;6.148;2023-04-03T04:36:03;3.83;;;1.63;;
38425;SDS011;24210;51.460;6.148;2023-04-03T04:38:28;3.50;;;1.33;;
38425;SDS011;24210;51.460;6.148;2023-04-03T04:40:53;2.40;;;1.60;;
38425;SDS011;24210;51.460;6.148;2023-04-03T04:43:18;4.57;;;0.87;;
38425;SDS011;24210;51.460;6.148;2023-04-03T04:45:44;5.20;;;1.87;;
38425;SDS011;24210;51.460;6.148;2023-04-03T04:48:09;3.47;;;1.80;;
38425;SDS011;24210;51.460;6.148;2023-04-03T04:50:34;4.37;;;1.73;;
38425;SDS011;24210;51.460;6.148;2023-04-03T04:53:00;3.83;;;1.70;;
38425;SDS011;24210;51.460;6.148;2023-04-03T04:55:25;4.50;;;1.87;;
38425;SDS011;24210;51.460;6.148;2023-04-03T04:57:50;3.73;;;1.80;;
38425;SDS011;24210;51.460;6.148;2023-04-03T05:00:15;6.63;;;2.77;;
38425;SDS011;24210;51.460;6.148;2023-04-03T05:02:41;5.50;;;2.13;;
38425;SDS011;24210;51.460;6.148;2023-04-03T05:05:06;5.03;;;2.00;;
38425;SDS011;24210;51.460;6.148;2023-04-03T05:07:31;5.47;;;2.27;;
38425;SDS011;24210;51.460;6.148;2023-04-03T05:09:57;4.40;;;2.03;;
38425;SDS011;24210;51.460;6.148;2023-04-03T05:12:22;4.73;;;2.00;;
38425;SDS011;24210;51.460;6.148;2023-04-03T05:14:47;8.60;;;2.30;;
38425;SDS011;24210;51.460;6.148;2023-04-03T05:17:12;2.73;;;1.97;;
38425;SDS011;24210;51.460;6.148;2023-04-03T05:19:37;6.83;;;2.00;;
38425;SDS011;24210;51.460;6.148;2023-04-03T05:22:03;5.10;;;2.33;;
38425;SDS011;24210;51.460;6.148;2023-04-03T05:24:28;4.33;;;1.87;;
38425;SDS011;24210;51.460;6.148;2023-04-03T05:26:53;4.40;;;1.60;;
38425;SDS011;24210;51.460;6.148;2023-04-03T05:29:18;3.77;;;1.50;;
38425;SDS011;24210;51.460;6.148;2023-04-03T05:31:44;5.60;;;1.90;;
38425;SDS011;24210;51.460;6.148;2023-04-03T05:34:09;6.87;;;1.30;;
38425;SDS011;24210;51.460;6.148;2023-04-03T05:36:35;6.00;;;2.03;;
38425;SDS011;24210;51.460;6.148;2023-04-03T05:39:00;2.20;;;1.37;;
38425;SDS011;24210;51.460;6.148;2023-04-03T05:41:25;3.93;;;1.83;;
38425;SDS011;24210;51.460;6.148;2023-04-03T05:43:50;4.47;;;1.40;;
38425;SDS011;24210;51.460;6.148;2023-04-03T05:46:17;10.00;;;1.43;;
38425;SDS011;24210;51.460;6.148;2023-04-03T05:48:42;3.63;;;1.58;;
38425;SDS011;24210;51.460;6.148;2023-04-03T05:51:09;6.17;;;1.43;;
38425;SDS011;24210;51.460;6.148;2023-04-03T05:53:37;4.80;;;1.70;;
38425;SDS011;24210;51.460;6.148;2023-04-03T05:56:03;4.90;;;1.43;;
38425;SDS011;24210;51.460;6.148;2023-04-03T05:58:28;2.17;;;1.67;;
38425;SDS011;24210;51.460;6.148;2023-04-03T06:00:53;5.47;;;2.37;;
38425;SDS011;24210;51.460;6.148;2023-04-03T06:03:19;6.40;;;2.20;;
38425;SDS011;24210;51.460;6.148;2023-04-03T06:05:44;6.67;;;1.90;;
38425;SDS011;24210;51.460;6.148;2023-04-03T06:08:11;7.22;;;1.48;;
38425;SDS011;24210;51.460;6.148;2023-04-03T06:10:36;4.20;;;1.87;;
38425;SDS011;24210;51.460;6.148;2023-04-03T06:13:01;4.63;;;1.70;;
38425;SDS011;24210;51.460;6.148;2023-04-03T06:15:27;5.50;;;1.73;;
38425;SDS011;24210;51.460;6.148;2023-04-03T06:17:52;5.70;;;1.83;;
38425;SDS011;24210;51.460;6.148;2023-04-03T06:20:17;6.20;;;2.00;;
38425;SDS011;24210;51.460;6.148;2023-04-03T06:22:43;6.40;;;2.13;;
38425;SDS011;24210;51.460;6.148;2023-04-03T06:25:08;4.60;;;1.43;;
38425;SDS011;24210;51.460;6.148;2023-04-03T06:27:34;4.05;;;1.75;;
38425;SDS011;24210;51.460;6.148;2023-04-03T06:29:59;4.13;;;1.03;;
38425;SDS011;24210;51.460;6.148;2023-04-03T06:32:25;7.23;;;2.10;;
38425;SDS011;24210;51.460;6.148;2023-04-03T06:34:50;5.10;;;1.47;;
38425;SDS011;24210;51.460;6.148;2023-04-03T06:37:16;9.43;;;2.10;;
38425;SDS011;24210;51.460;6.148;2023-04-03T06:39:42;7.07;;;1.67;;
38425;SDS011;24210;51.460;6.148;2023-04-03T06:42:07;4.00;;;1.30;;
38425;SDS011;24210;51.460;6.148;2023-04-03T06:44:33;8.03;;;2.20;;
38425;SDS011;24210;51.460;6.148;2023-04-03T06:46:59;2.35;;;0.63;;
38425;SDS011;24210;51.460;6.148;2023-04-03T06:49:25;6.80;;;1.33;;
38425;SDS011;24210;51.460;6.148;2023-04-03T06:51:50;3.90;;;1.50;;
38425;SDS011;24210;51.460;6.148;2023-04-03T06:54:16;2.90;;;1.45;;
38425;SDS011;24210;51.460;6.148;2023-04-03T06:56:41;6.80;;;1.63;;
38425;SDS011;24210;51.460;6.148;2023-04-03T06:59:07;9.40;;;1.80;;
38425;SDS011;24210;51.460;6.148;2023-04-03T07:01:33;8.15;;;2.15;;
38425;SDS011;24210;51.460;6.148;2023-04-03T07:03:58;6.00;;;2.23;;
38425;SDS011;24210;51.460;6.148;2023-04-03T07:06:24;1.07;;;0.67;;
38425;SDS011;24210;51.460;6.148;2023-04-03T07:08:51;5.43;;;2.08;;
38425;SDS011;24210;51.460;6.148;2023-04-03T07:11:17;7.73;;;2.40;;
38425;SDS011;24210;51.460;6.148;2023-04-03T07:13:42;2.50;;;1.43;;
38425;SDS011;24210;51.460;6.148;2023-04-03T07:16:08;4.37;;;1.33;;
38425;SDS011;24210;51.460;6.148;2023-04-03T07:18:33;4.80;;;2.47;;
38425;SDS011;24210;51.460;6.148;2023-04-03T07:20:59;9.53;;;2.47;;
38425;SDS011;24210;51.460;6.148;2023-04-03T07:23:24;9.63;;;1.30;;
38425;SDS011;24210;51.460;6.148;2023-04-03T07:25:50;1.07;;;0.93;;
38425;SDS011;24210;51.460;6.148;2023-04-03T07:28:16;4.25;;;0.80;;
38425;SDS011;24210;51.460;6.148;2023-04-03T07:30:46;8.57;;;1.75;;
38425;SDS011;24210;51.460;6.148;2023-04-03T07:33:11;2.67;;;1.67;;
38425;SDS011;24210;51.460;6.148;2023-04-03T07:35:38;2.53;;;0.98;;
38425;SDS011;24210;51.460;6.148;2023-04-03T07:38:03;5.50;;;1.83;;
38425;SDS011;24210;51.460;6.148;2023-04-03T07:40:28;3.50;;;1.00;;
38425;SDS011;24210;51.460;6.148;2023-04-03T07:42:53;6.60;;;1.90;;
38425;SDS011;24210;51.460;6.148;2023-04-03T07:45:21;6.18;;;1.08;;
38425;SDS011;24210;51.460;6.148;2023-04-03T07:47:47;5.03;;;1.15;;
38425;SDS011;24210;51.460;6.148;2023-04-03T07:50:13;2.53;;;1.23;;
38425;SDS011;24210;51.460;6.148;2023-04-03T07:52:38;3.97;;;1.23;;
38425;SDS011;24210;51.460;6.148;2023-04-03T07:55:03;3.13;;;1.33;;
38425;SDS011;24210;51.460;6.148;2023-04-03T07:57:29;6.20;;;1.50;;
38425;SDS011;24210;51.460;6.148;2023-04-03T07:59:54;4.50;;;1.40;;
38425;SDS011;24210;51.460;6.148;2023-04-03T08:02:19;4.97;;;1.73;;
38425;SDS011;24210;51.460;6.148;2023-04-03T08:04:45;7.50;;;2.17;;
38425;SDS011;24210;51.460;6.148;2023-04-03T08:07:10;3.10;;;1.37;;
38425;SDS011;24210;51.460;6.148;2023-04-03T08:09:35;2.73;;;0.80;;
38425;SDS011;24210;51.460;6.148;2023-04-03T08:12:01;6.47;;;1.70;;
38425;SDS011;24210;51.460;6.148;2023-04-03T08:14:26;5.70;;;1.77;;
38425;SDS011;24210;51.460;6.148;2023-04-03T08:16:51;5.33;;;1.53;;
38425;SDS011;24210;51.460;6.148;2023-04-03T08:19:16;3.87;;;1.40;;
38425;SDS011;24210;51.460;6.148;2023-04-03T08:21:43;2.35;;;1.17;;
38425;SDS011;24210;51.460;6.148;2023-04-03T08:24:08;2.37;;;0.67;;
38425;SDS011;24210;51.460;6.148;2023-04-03T08:26:34;3.70;;;1.10;;
38425;SDS011;24210;51.460;6.148;2023-04-03T08:28:59;0.73;;;0.57;;
38425;SDS011;24210;51.460;6.148;2023-04-03T08:31:24;4.80;;;1.80;;
38425;SDS011;24210;51.460;6.148;2023-04-03T08:33:49;1.73;;;0.87;;
38425;SDS011;24210;51.460;6.148;2023-04-03T08:36:28;4.17;;;0.77;;
38425;SDS011;24210;51.460;6.148;2023-04-03T08:38:54;3.83;;;0.57;;
38425;SDS011;24210;51.460;6.148;2023-04-03T08:41:22;3.70;;;1.35;;
38425;SDS011;24210;51.460;6.148;2023-04-03T08:46:52;6.38;;;1.10;;
38425;SDS011;24210;51.460;6.148;2023-04-03T08:49:32;3.38;;;1.05;;
38425;SDS011;24210;51.460;6.148;2023-04-03T08:51:59;2.58;;;0.93;;
38425;SDS011;24210;51.460;6.148;2023-04-03T08:54:37;2.58;;;1.15;;
38425;SDS011;24210;51.460;6.148;2023-04-03T08:57:05;3.35;;;0.95;;
38425;SDS011;24210;51.460;6.148;2023-04-03T08:59:34;3.83;;;0.67;;
38425;SDS011;24210;51.460;6.148;2023-04-03T09:02:01;2.78;;;0.70;;
38425;SDS011;24210;51.460;6.148;2023-04-03T09:04:29;2.47;;;0.73;;
38425;SDS011;24210;51.460;6.148;2023-04-03T09:07:02;5.28;;;0.88;;
38425;SDS011;24210;51.460;6.148;2023-04-03T09:09:34;3.03;;;0.80;;
38425;SDS011;24210;51.460;6.148;2023-04-03T09:12:21;5.47;;;0.40;;
38425;SDS011;24210;51.460;6.148;2023-04-03T09:22:28;3.20;;;0.85;;
38425;SDS011;24210;51.460;6.148;2023-04-03T09:27:34;1.75;;;0.80;;
38425;SDS011;24210;51.460;6.148;2023-04-03T09:29:59;3.00;;;0.60;;
38425;SDS011;24210;51.460;6.148;2023-04-03T09:32:28;1.83;;;0.77;;
38425;SDS011;24210;51.460;6.148;2023-04-03T09:34:54;4.75;;;0.68;;
38425;SDS011;24210;51.460;6.148;2023-04-03T09:39:52;1.90;;;0.55;;
38425;SDS011;24210;51.460;6.148;2023-04-03T09:42:24;3.15;;;0.60;;
38425;SDS011;24210;51.460;6.148;2023-04-03T09:44:54;1.20;;;0.43;;
38425;SDS011;24210;51.460;6.148;2023-04-03T09:47:24;0.80;;;0.30;;
38425;SDS011;24210;51.460;6.148;2023-04-03T09:49:49;0.80;;;0.15;;
38425;SDS011;24210;51.460;6.148;2023-04-03T09:52:19;0.63;;;0.43;;
38425;SDS011;24210;51.460;6.148;2023-04-03T09:54:44;1.85;;;0.35;;
38425;SDS011;24210;51.460;6.148;2023-04-03T09:59:38;2.60;;;0.60;;
38425;SDS011;24210;51.460;6.148;2023-04-03T10:04:43;2.08;;;0.40;;
38425;SDS011;24210;51.460;6.148;2023-04-03T10:09:56;0.32;;;0.10;;
38425;SDS011;24210;51.460;6.148;2023-04-03T10:12:21;0.77;;;0.20;;
38425;SDS011;24210;51.460;6.148;2023-04-03T10:17:22;0.45;;;0.20;;
38425;SDS011;24210;51.460;6.148;2023-04-03T10:19:54;2.33;;;0.60;;
38425;SDS011;24210;51.460;6.148;2023-04-03T10:32:50;1.02;;;0.30;;
38425;SDS011;24210;51.460;6.148;2023-04-03T10:35:29;0.70;;;0.22;;
38425;SDS011;24210;51.460;6.148;2023-04-03T10:50:38;0.40;;;0.10;;
38425;SDS011;24210;51.460;6.148;2023-04-03T10:58:00;3.30;;;0.67;;
38425;SDS011;24210;51.460;6.148;2023-04-03T11:00:39;3.03;;;0.33;;
38425;SDS011;24210;51.460;6.148;2023-04-03T11:06:02;2.28;;;0.98;;
38425;SDS011;24210;51.460;6.148;2023-04-03T11:08:48;3.28;;;1.25;;
38425;SDS011;24210;51.460;6.148;2023-04-03T11:11:16;3.35;;;0.95;;
38425;SDS011;24210;51.460;6.148;2023-04-03T11:16:13;2.40;;;0.98;;
38425;SDS011;24210;51.460;6.148;2023-04-03T11:18:42;1.35;;;0.75;;
38425;SDS011;24210;51.460;6.148;2023-04-03T11:23:35;2.00;;;0.60;;
38425;SDS011;24210;51.460;6.148;2023-04-03T11:26:14;2.00;;;0.88;;
38425;SDS011;24210;51.460;6.148;2023-04-03T11:28:40;2.65;;;0.50;;
38425;SDS011;24210;51.460;6.148;2023-04-03T11:36:28;1.00;;;0.25;;
38425;SDS011;24210;51.460;6.148;2023-04-03T11:38:56;1.67;;;0.55;;
38425;SDS011;24210;51.460;6.148;2023-04-03T11:41:29;3.92;;;0.70;;
38425;SDS011;24210;51.460;6.148;2023-04-03T11:43:59;1.80;;;0.57;;
38425;SDS011;24210;51.460;6.148;2023-04-03T11:52:07;2.72;;;0.50;;
38425;SDS011;24210;51.460;6.148;2023-04-03T11:54:36;1.65;;;0.52;;
38425;SDS011;24210;51.460;6.148;2023-04-03T11:57:38;2.35;;;0.68;;
38425;SDS011;24210;51.460;6.148;2023-04-03T12:02:51;2.50;;;0.88;;
38425;SDS011;24210;51.460;6.148;2023-04-03T12:05:25;2.20;;;0.90;;
38425;SDS011;24210;51.460;6.148;2023-04-03T12:10:34;0.95;;;0.55;;
38425;SDS011;24210;51.460;6.148;2023-04-03T12:13:00;1.60;;;0.73;;
38425;SDS011;24210;51.460;6.148;2023-04-03T12:18:31;0.20;;;0.15;;
38425;SDS011;24210;51.460;6.148;2023-04-03T12:23:26;2.03;;;0.45;;
38425;SDS011;24210;51.460;6.148;2023-04-03T12:25:51;1.70;;;0.32;;
38425;SDS011;24210;51.460;6.148;2023-04-03T12:28:16;2.07;;;0.37;;
38425;SDS011;24210;51.460;6.148;2023-04-03T12:30:42;2.17;;;0.57;;
38425;SDS011;24210;51.460;6.148;2023-04-03T12:33:20;3.97;;;0.68;;
38425;SDS011;24210;51.460;6.148;2023-04-03T12:36:03;1.20;;;0.55;;
38425;SDS011;24210;51.460;6.148;2023-04-03T12:38:34;2.40;;;1.20;;
38425;SDS011;24210;51.460;6.148;2023-04-03T12:46:28;1.08;;;0.35;;
38425;SDS011;24210;51.460;6.148;2023-04-03T12:48:58;2.00;;;0.90;;
38425;SDS011;24210;51.460;6.148;2023-04-03T12:51:37;2.95;;;1.10;;
38425;SDS011;24210;51.460;6.148;2023-04-03T12:54:12;2.63;;;0.85;;
38425;SDS011;24210;51.460;6.148;2023-04-03T12:56:39;3.35;;;1.02;;
38425;SDS011;24210;51.460;6.148;2023-04-03T12:59:24;2.70;;;0.97;;
38425;SDS011;24210;51.460;6.148;2023-04-03T13:01:59;2.45;;;0.65;;
38425;SDS011;24210;51.460;6.148;2023-04-03T13:04:25;0.82;;;0.25;;
38425;SDS011;24210;51.460;6.148;2023-04-03T13:06:51;2.03;;;0.60;;
38425;SDS011;24210;51.460;6.148;2023-04-03T13:09:35;0.50;;;0.47;;
38425;SDS011;24210;51.460;6.148;2023-04-03T13:12:09;4.68;;;0.90;;
38425;SDS011;24210;51.460;6.148;2023-04-03T13:14:36;7.70;;;0.90;;
38425;SDS011;24210;51.460;6.148;2023-04-03T13:17:14;4.90;;;0.60;;
38425;SDS011;24210;51.460;6.148;2023-04-03T13:19:40;0.80;;;0.75;;
38425;SDS011;24210;51.460;6.148;2023-04-03T13:22:23;2.13;;;0.32;;
38425;SDS011;24210;51.460;6.148;2023-04-03T13:24:50;4.43;;;0.60;;
38425;SDS011;24210;51.460;6.148;2023-04-03T13:27:16;2.03;;;0.50;;
38425;SDS011;24210;51.460;6.148;2023-04-03T13:29:42;3.73;;;0.80;;
38425;SDS011;24210;51.460;6.148;2023-04-03T13:32:13;2.83;;;0.77;;
38425;SDS011;24210;51.460;6.148;2023-04-03T13:34:41;0.52;;;0.17;;
38425;SDS011;24210;51.460;6.148;2023-04-03T13:37:07;2.80;;;0.68;;
38425;SDS011;24210;51.460;6.148;2023-04-03T13:39:43;1.33;;;0.75;;
38425;SDS011;24210;51.460;6.148;2023-04-03T13:42:15;1.10;;;0.77;;
38425;SDS011;24210;51.460;6.148;2023-04-03T13:44:42;2.05;;;0.85;;
38425;SDS011;24210;51.460;6.148;2023-04-03T13:51:58;3.13;;;0.80;;
38425;SDS011;24210;51.460;6.148;2023-04-03T13:54:24;0.40;;;0.30;;
38425;SDS011;24210;51.460;6.148;2023-04-03T13:56:54;1.60;;;0.57;;
38425;SDS011;24210;51.460;6.148;2023-04-03T13:59:24;0.40;;;0.20;;
38425;SDS011;24210;51.460;6.148;2023-04-03T14:02:09;1.58;;;0.57;;
38425;SDS011;24210;51.460;6.148;2023-04-03T14:04:46;1.70;;;0.75;;
38425;SDS011;24210;51.460;6.148;2023-04-03T14:07:13;2.58;;;0.70;;
38425;SDS011;24210;51.460;6.148;2023-04-03T14:09:39;1.67;;;0.60;;
38425;SDS011;24210;51.460;6.148;2023-04-03T14:12:06;2.20;;;1.13;;
38425;SDS011;24210;51.460;6.148;2023-04-03T14:14:33;2.75;;;1.13;;
38425;SDS011;24210;51.460;6.148;2023-04-03T14:17:00;2.20;;;1.05;;
38425;SDS011;24210;51.460;6.148;2023-04-03T14:19:30;3.20;;;0.60;;
38425;SDS011;24210;51.460;6.148;2023-04-03T14:21:57;1.13;;;0.40;;
38425;SDS011;24210;51.460;6.148;2023-04-03T14:24:22;1.07;;;0.87;;
38425;SDS011;24210;51.460;6.148;2023-04-03T14:26:48;2.93;;;0.97;;
38425;SDS011;24210;51.460;6.148;2023-04-03T14:29:14;1.20;;;0.82;;
38425;SDS011;24210;51.460;6.148;2023-04-03T14:31:40;4.20;;;0.63;;
38425;SDS011;24210;51.460;6.148;2023-04-03T14:34:07;2.08;;;0.85;;
38425;SDS011;24210;51.460;6.148;2023-04-03T14:36:32;1.63;;;0.40;;
38425;SDS011;24210;51.460;6.148;2023-04-03T14:38:58;4.50;;;0.90;;
38425;SDS011;24210;51.460;6.148;2023-04-03T14:41:24;1.15;;;0.45;;
38425;SDS011;24210;51.460;6.148;2023-04-03T14:43:50;2.00;;;0.52;;
38425;SDS011;24210;51.460;6.148;2023-04-03T14:48:41;3.83;;;1.00;;
38425;SDS011;24210;51.460;6.148;2023-04-03T14:51:06;5.93;;;0.60;;
38425;SDS011;24210;51.460;6.148;2023-04-03T14:53:31;1.73;;;0.50;;
38425;SDS011;24210;51.460;6.148;2023-04-03T14:55:57;7.47;;;0.77;;
38425;SDS011;24210;51.460;6.148;2023-04-03T14:58:23;1.13;;;0.17;;
38425;SDS011;24210;51.460;6.148;2023-04-03T15:00:48;1.80;;;0.50;;
38425;SDS011;24210;51.460;6.148;2023-04-03T15:03:17;0.27;;;0.20;;
38425;SDS011;24210;51.460;6.148;2023-04-03T15:05:43;4.47;;;0.80;;
38425;SDS011;24210;51.460;6.148;2023-04-03T15:08:13;0.82;;;0.40;;
38425;SDS011;24210;51.460;6.148;2023-04-03T15:10:41;2.30;;;0.63;;
38425;SDS011;24210;51.460;6.148;2023-04-03T15:13:08;2.93;;;0.40;;
38425;SDS011;24210;51.460;6.148;2023-04-03T15:17:58;2.38;;;0.93;;
38425;SDS011;24210;51.460;6.148;2023-04-03T15:20:24;0.93;;;0.20;;
38425;SDS011;24210;51.460;6.148;2023-04-03T15:22:50;1.17;;;0.40;;
38425;SDS011;24210;51.460;6.148;2023-04-03T15:25:15;1.17;;;0.93;;
38425;SDS011;24210;51.460;6.148;2023-04-03T15:27:40;1.90;;;0.60;;
38425;SDS011;24210;51.460;6.148;2023-04-03T15:30:08;2.47;;;0.50;;
38425;SDS011;24210;51.460;6.148;2023-04-03T15:32:36;1.17;;;0.50;;
38425;SDS011;24210;51.460;6.148;2023-04-03T15:35:01;2.93;;;0.60;;
38425;SDS011;24210;51.460;6.148;2023-04-03T15:37:27;1.47;;;0.90;;
38425;SDS011;24210;51.460;6.148;2023-04-03T15:39:52;1.47;;;0.50;;
38425;SDS011;24210;51.460;6.148;2023-04-03T15:42:17;3.67;;;0.40;;
38425;SDS011;24210;51.460;6.148;2023-04-03T15:44:42;3.20;;;0.60;;
38425;SDS011;24210;51.460;6.148;2023-04-03T15:47:08;1.93;;;0.63;;
38425;SDS011;24210;51.460;6.148;2023-04-03T15:49:33;1.23;;;0.87;;
38425;SDS011;24210;51.460;6.148;2023-04-03T15:51:59;2.60;;;0.70;;
38425;SDS011;24210;51.460;6.148;2023-04-03T15:54:24;0.73;;;0.37;;
38425;SDS011;24210;51.460;6.148;2023-04-03T15:56:50;1.23;;;0.43;;
38425;SDS011;24210;51.460;6.148;2023-04-03T15:59:15;1.30;;;0.50;;
38425;SDS011;24210;51.460;6.148;2023-04-03T16:01:40;1.70;;;0.47;;
38425;SDS011;24210;51.460;6.148;2023-04-03T16:04:07;0.97;;;0.43;;
38425;SDS011;24210;51.460;6.148;2023-04-03T16:06:33;3.00;;;0.47;;
38425;SDS011;24210;51.460;6.148;2023-04-03T16:08:58;2.77;;;0.40;;
38425;SDS011;24210;51.460;6.148;2023-04-03T16:11:25;1.73;;;0.60;;
38425;SDS011;24210;51.460;6.148;2023-04-03T16:13:51;1.10;;;0.60;;
38425;SDS011;24210;51.460;6.148;2023-04-03T16:16:16;2.43;;;0.50;;
38425;SDS011;24210;51.460;6.148;2023-04-03T16:18:41;3.70;;;1.13;;
38425;SDS011;24210;51.460;6.148;2023-04-03T16:21:06;2.07;;;0.50;;
38425;SDS011;24210;51.460;6.148;2023-04-03T16:23:33;1.42;;;0.70;;
38425;SDS011;24210;51.460;6.148;2023-04-03T16:25:58;1.20;;;0.80;;
38425;SDS011;24210;51.460;6.148;2023-04-03T16:28:24;1.17;;;0.50;;
38425;SDS011;24210;51.460;6.148;2023-04-03T16:30:49;4.03;;;0.47;;
38425;SDS011;24210;51.460;6.148;2023-04-03T16:33:15;3.23;;;0.47;;
38425;SDS011;24210;51.460;6.148;2023-04-03T16:35:40;4.10;;;1.00;;